sensor_id;sensor_type;location;lat;lon;timestamp;pressure;altitude;pressure_sealevel;temperature;humidity
39739;BME280;25422;48.286;8.484;2023-07-31T00:01:17;94263.59;;;9.86;100.00
39739;BME280;25422;48.286;8.484;2023-07-31T00:03:43;94280.41;;;9.91;100.00
39739;BME280;25422;48.286;8.484;2023-07-31T00:06:08;94269.31;;;9.98;100.00
39739;BME280;25422;48.286;8.484;2023-07-31T00:08:33;94268.81;;;9.86;100.00
39739;BME280;25422;48.286;8.484;2023-07-31T00:10:59;94269.78;;;9.68;100.00
39739;BME280;25422;48.286;8.484;2023-07-31T00:13:24;94265.84;;;9.56;100.00
39739;BME280;25422;48.286;8.484;2023-07-31T00:15:50;94258.19;;;9.46;100.00
39739;BME280;25422;48.286;8.484;2023-07-31T00:18:15;94259.47;;;9.42;100.00
39739;BME280;25422;48.286;8.484;2023-07-31T00:20:41;94252.78;;;9.39;100.00
39739;BME280;25422;48.286;8.484;2023-07-31T00:23:06;94254.25;;;9.42;100.00
39739;BME280;25422;48.286;8.484;2023-07-31T00:25:32;94252.13;;;9.37;100.00
39739;BME280;25422;48.286;8.484;2023-07-31T00:27:57;94253.41;;;9.33;100.00
39739;BME280;25422;48.286;8.484;2023-07-31T00:30:22;94252.25;;;9.27;100.00
39739;BME280;25422;48.286;8.484;2023-07-31T00:32:50;94243.44;;;9.20;100.00
39739;BME280;25422;48.286;8.484;2023-07-31T00:35:16;94243.41;;;9.12;100.00
39739;BME280;25422;48.286;8.484;2023-07-31T00:37:41;94251.06;;;9.05;100.00
39739;BME280;25422;48.286;8.484;2023-07-31T00:40:07;94255.75;;;9.02;100.00
39739;BME280;25422;48.286;8.484;2023-07-31T00:42:33;94248.94;;;9.01;100.00
39739;BME280;25422;48.286;8.484;2023-07-31T00:44:58;94256.25;;;8.97;100.00
39739;BME280;25422;48.286;8.484;2023-07-31T00:47:24;94246.94;;;8.94;100.00
39739;BME280;25422;48.286;8.484;2023-07-31T00:49:49;94249.38;;;8.96;100.00
39739;BME280;25422;48.286;8.484;2023-07-31T00:52:14;94259.50;;;8.99;100.00
39739;BME280;25422;48.286;8.484;2023-07-31T00:54:40;94249.06;;;8.99;100.00
39739;BME280;25422;48.286;8.484;2023-07-31T00:57:05;94246.00;;;9.04;100.00
39739;BME280;25422;48.286;8.484;2023-07-31T00:59:33;94252.88;;;9.13;100.00
39739;BME280;25422;48.286;8.484;2023-07-31T01:01:59;94236.38;;;9.13;100.00
39739;BME280;25422;48.286;8.484;2023-07-31T01:04:25;94235.22;;;9.07;100.00
39739;BME280;25422;48.286;8.484;2023-07-31T01:09:52;94245.50;;;9.08;100.00
39739;BME280;25422;48.286;8.484;2023-07-31T01:12:22;94238.34;;;9.10;100.00
39739;BME280;25422;48.286;8.484;2023-07-31T01:17:26;94241.75;;;9.03;100.00
39739;BME280;25422;48.286;8.484;2023-07-31T01:19:53;94237.66;;;9.00;100.00
39739;BME280;25422;48.286;8.484;2023-07-31T01:22:34;94232.13;;;9.03;100.00
39739;BME280;25422;48.286;8.484;2023-07-31T01:27:56;94238.53;;;9.17;100.00
39739;BME280;25422;48.286;8.484;2023-07-31T01:30:27;94231.84;;;9.23;100.00
39739;BME280;25422;48.286;8.484;2023-07-31T01:32:55;94219.44;;;9.25;100.00
39739;BME280;25422;48.286;8.484;2023-07-31T01:35:22;94217.84;;;9.24;100.00
39739;BME280;25422;48.286;8.484;2023-07-31T01:37:49;94217.31;;;9.20;100.00
39739;BME280;25422;48.286;8.484;2023-07-31T01:40:17;94211.59;;;9.17;100.00
39739;BME280;25422;48.286;8.484;2023-07-31T01:42:42;94215.22;;;9.16;100.00
39739;BME280;25422;48.286;8.484;2023-07-31T01:45:08;94216.97;;;9.15;100.00
39739;BME280;25422;48.286;8.484;2023-07-31T01:47:34;94218.13;;;9.21;100.00
39739;BME280;25422;48.286;8.484;2023-07-31T01:50:00;94215.53;;;9.29;100.00
39739;BME280;25422;48.286;8.484;2023-07-31T01:52:25;94218.31;;;9.27;100.00
39739;BME280;25422;48.286;8.484;2023-07-31T01:54:51;94203.59;;;9.18;100.00
39739;BME280;25422;48.286;8.484;2023-07-31T01:57:17;94210.28;;;9.13;100.00
39739;BME280;25422;48.286;8.484;2023-07-31T01:59:42;94212.25;;;9.10;100.00
39739;BME280;25422;48.286;8.484;2023-07-31T02:02:07;94197.91;;;9.06;100.00
39739;BME280;25422;48.286;8.484;2023-07-31T02:04:33;94196.28;;;9.14;100.00
39739;BME280;25422;48.286;8.484;2023-07-31T02:06:59;94194.63;;;9.21;100.00
39739;BME280;25422;48.286;8.484;2023-07-31T02:09:24;94182.25;;;9.23;100.00
39739;BME280;25422;48.286;8.484;2023-07-31T02:11:50;94190.56;;;9.18;100.00
39739;BME280;25422;48.286;8.484;2023-07-31T02:14:15;94188.59;;;9.12;100.00
39739;BME280;25422;48.286;8.484;2023-07-31T02:16:41;94176.84;;;9.08;100.00
39739;BME280;25422;48.286;8.484;2023-07-31T02:19:08;94164.59;;;9.08;100.00
39739;BME280;25422;48.286;8.484;2023-07-31T02:21:33;94167.53;;;9.05;100.00
39739;BME280;25422;48.286;8.484;2023-07-31T02:23:58;94170.66;;;9.09;100.00
39739;BME280;25422;48.286;8.484;2023-07-31T02:26:24;94163.63;;;9.09;100.00
39739;BME280;25422;48.286;8.484;2023-07-31T02:28:49;94169.66;;;9.10;100.00
39739;BME280;25422;48.286;8.484;2023-07-31T02:31:15;94172.94;;;9.12;100.00
39739;BME280;25422;48.286;8.484;2023-07-31T02:33:40;94169.84;;;9.17;100.00
39739;BME280;25422;48.286;8.484;2023-07-31T02:36:05;94171.47;;;9.18;100.00
39739;BME280;25422;48.286;8.484;2023-07-31T02:38:31;94170.78;;;9.07;100.00
39739;BME280;25422;48.286;8.484;2023-07-31T02:40:56;94167.88;;;9.02;100.00
39739;BME280;25422;48.286;8.484;2023-07-31T02:43:22;94165.44;;;9.01;100.00
39739;BME280;25422;48.286;8.484;2023-07-31T02:45:52;94163.28;;;8.96;100.00
39739;BME280;25422;48.286;8.484;2023-07-31T02:48:17;94165.38;;;8.92;100.00
39739;BME280;25422;48.286;8.484;2023-07-31T02:50:43;94160.50;;;8.98;100.00
39739;BME280;25422;48.286;8.484;2023-07-31T02:53:08;94158.25;;;9.03;100.00
39739;BME280;25422;48.286;8.484;2023-07-31T02:55:34;94154.50;;;9.05;100.00
39739;BME280;25422;48.286;8.484;2023-07-31T02:57:59;94155.31;;;9.06;100.00
39739;BME280;25422;48.286;8.484;2023-07-31T03:00:25;94147.34;;;9.16;100.00
39739;BME280;25422;48.286;8.484;2023-07-31T03:02:50;94157.47;;;9.19;100.00
39739;BME280;25422;48.286;8.484;2023-07-31T03:05:15;94154.84;;;9.27;100.00
39739;BME280;25422;48.286;8.484;2023-07-31T03:07:41;94153.03;;;9.27;100.00
39739;BME280;25422;48.286;8.484;2023-07-31T03:10:06;94156.78;;;9.25;100.00
39739;BME280;25422;48.286;8.484;2023-07-31T03:12:32;94158.25;;;9.19;100.00
39739;BME280;25422;48.286;8.484;2023-07-31T03:14:57;94166.09;;;9.19;100.00
39739;BME280;25422;48.286;8.484;2023-07-31T03:17:23;94167.56;;;9.14;100.00
39739;BME280;25422;48.286;8.484;2023-07-31T03:19:48;94173.91;;;9.11;100.00
39739;BME280;25422;48.286;8.484;2023-07-31T03:22:14;94173.91;;;9.11;100.00
39739;BME280;25422;48.286;8.484;2023-07-31T03:24:39;94172.63;;;9.15;100.00
39739;BME280;25422;48.286;8.484;2023-07-31T03:27:05;94177.38;;;9.20;100.00
39739;BME280;25422;48.286;8.484;2023-07-31T03:29:31;94185.66;;;9.23;100.00
39739;BME280;25422;48.286;8.484;2023-07-31T03:31:56;94181.59;;;9.29;100.00
39739;BME280;25422;48.286;8.484;2023-07-31T03:34:22;94172.97;;;9.37;100.00
39739;BME280;25422;48.286;8.484;2023-07-31T03:36:47;94184.56;;;9.42;100.00
39739;BME280;25422;48.286;8.484;2023-07-31T03:39:13;94178.19;;;9.45;100.00
39739;BME280;25422;48.286;8.484;2023-07-31T03:41:38;94169.56;;;9.53;100.00
39739;BME280;25422;48.286;8.484;2023-07-31T03:44:04;94165.81;;;9.47;100.00
39739;BME280;25422;48.286;8.484;2023-07-31T03:46:30;94161.06;;;9.51;100.00
39739;BME280;25422;48.286;8.484;2023-07-31T03:48:55;94159.09;;;9.53;100.00
39739;BME280;25422;48.286;8.484;2023-07-31T03:51:22;94166.78;;;9.46;100.00
39739;BME280;25422;48.286;8.484;2023-07-31T03:53:47;94165.31;;;9.43;100.00
39739;BME280;25422;48.286;8.484;2023-07-31T03:56:13;94162.06;;;9.41;100.00
39739;BME280;25422;48.286;8.484;2023-07-31T03:58:38;94155.03;;;9.42;100.00
39739;BME280;25422;48.286;8.484;2023-07-31T04:01:04;94153.22;;;9.42;100.00
39739;BME280;25422;48.286;8.484;2023-07-31T04:03:30;94156.31;;;9.38;100.00
39739;BME280;25422;48.286;8.484;2023-07-31T04:05:56;94150.59;;;9.34;100.00
39739;BME280;25422;48.286;8.484;2023-07-31T04:08:22;94150.78;;;9.33;100.00
39739;BME280;25422;48.286;8.484;2023-07-31T04:10:47;94149.63;;;9.35;100.00
39739;BME280;25422;48.286;8.484;2023-07-31T04:13:13;94152.06;;;9.37;100.00
39739;BME280;25422;48.286;8.484;2023-07-31T04:15:38;94155.34;;;9.39;100.00
39739;BME280;25422;48.286;8.484;2023-07-31T04:18:04;94149.63;;;9.35;100.00
39739;BME280;25422;48.286;8.484;2023-07-31T04:20:30;94155.81;;;9.34;100.00
39739;BME280;25422;48.286;8.484;2023-07-31T04:22:56;94157.13;;;9.38;100.00
39739;BME280;25422;48.286;8.484;2023-07-31T04:25:21;94150.94;;;9.48;100.00
39739;BME280;25422;48.286;8.484;2023-07-31T04:27:47;94154.53;;;9.55;100.00
39739;BME280;25422;48.286;8.484;2023-07-31T04:30:12;94155.34;;;9.64;100.00
39739;BME280;25422;48.286;8.484;2023-07-31T04:32:38;94148.97;;;9.74;100.00
39739;BME280;25422;48.286;8.484;2023-07-31T04:35:03;94152.38;;;9.83;100.00
39739;BME280;25422;48.286;8.484;2023-07-31T04:37:29;94154.16;;;9.91;100.00
39739;BME280;25422;48.286;8.484;2023-07-31T04:39:54;94154.81;;;10.01;100.00
39739;BME280;25422;48.286;8.484;2023-07-31T04:42:20;94153.50;;;10.05;100.00
39739;BME280;25422;48.286;8.484;2023-07-31T04:44:45;94146.28;;;10.07;100.00
39739;BME280;25422;48.286;8.484;2023-07-31T04:47:10;94151.06;;;10.04;100.00
39739;BME280;25422;48.286;8.484;2023-07-31T04:49:36;94139.13;;;10.09;100.00
39739;BME280;25422;48.286;8.484;2023-07-31T04:52:01;94134.03;;;10.16;100.00
39739;BME280;25422;48.286;8.484;2023-07-31T04:54:26;94143.78;;;10.30;100.00
39739;BME280;25422;48.286;8.484;2023-07-31T04:56:52;94147.72;;;10.35;100.00
39739;BME280;25422;48.286;8.484;2023-07-31T04:59:18;94135.44;;;10.43;100.00
39739;BME280;25422;48.286;8.484;2023-07-31T05:01:43;94130.47;;;10.57;100.00
39739;BME280;25422;48.286;8.484;2023-07-31T05:04:13;94131.91;;;10.68;100.00
39739;BME280;25422;48.286;8.484;2023-07-31T05:06:41;94135.09;;;10.78;100.00
39739;BME280;25422;48.286;8.484;2023-07-31T05:09:07;94128.03;;;10.87;100.00
39739;BME280;25422;48.286;8.484;2023-07-31T05:11:34;94130.25;;;10.98;100.00
39739;BME280;25422;48.286;8.484;2023-07-31T05:14:00;94148.06;;;11.03;100.00
39739;BME280;25422;48.286;8.484;2023-07-31T05:16:25;94134.47;;;11.07;100.00
39739;BME280;25422;48.286;8.484;2023-07-31T05:18:50;94137.31;;;11.21;100.00
39739;BME280;25422;48.286;8.484;2023-07-31T05:21:16;94138.47;;;11.18;100.00
39739;BME280;25422;48.286;8.484;2023-07-31T05:23:41;94149.44;;;11.22;100.00
39739;BME280;25422;48.286;8.484;2023-07-31T05:26:07;94143.19;;;11.23;100.00
39739;BME280;25422;48.286;8.484;2023-07-31T05:28:35;94149.25;;;11.23;100.00
39739;BME280;25422;48.286;8.484;2023-07-31T05:31:01;94152.97;;;11.29;100.00
39739;BME280;25422;48.286;8.484;2023-07-31T05:33:27;94150.00;;;11.32;100.00
39739;BME280;25422;48.286;8.484;2023-07-31T05:35:52;94151.88;;;11.23;100.00
39739;BME280;25422;48.286;8.484;2023-07-31T05:38:18;94154.44;;;11.32;100.00
39739;BME280;25422;48.286;8.484;2023-07-31T05:40:43;94150.13;;;11.39;100.00
39739;BME280;25422;48.286;8.484;2023-07-31T05:43:09;94146.16;;;11.43;100.00
39739;BME280;25422;48.286;8.484;2023-07-31T05:45:35;94149.81;;;11.57;100.00
39739;BME280;25422;48.286;8.484;2023-07-31T05:48:00;94142.63;;;11.74;100.00
39739;BME280;25422;48.286;8.484;2023-07-31T05:50:26;94139.94;;;11.82;100.00
39739;BME280;25422;48.286;8.484;2023-07-31T05:52:51;94139.81;;;11.98;100.00
39739;BME280;25422;48.286;8.484;2023-07-31T05:55:17;94143.09;;;12.16;100.00
39739;BME280;25422;48.286;8.484;2023-07-31T05:57:42;94134.50;;;12.22;100.00
39739;BME280;25422;48.286;8.484;2023-07-31T06:00:08;94129.72;;;12.10;100.00
39739;BME280;25422;48.286;8.484;2023-07-31T06:02:34;94123.81;;;12.08;100.00
39739;BME280;25422;48.286;8.484;2023-07-31T06:05:03;94122.66;;;12.11;100.00
39739;BME280;25422;48.286;8.484;2023-07-31T06:07:33;94121.56;;;12.20;100.00
39739;BME280;25422;48.286;8.484;2023-07-31T06:09:59;94125.91;;;12.28;100.00
39739;BME280;25422;48.286;8.484;2023-07-31T06:12:34;94126.63;;;12.37;100.00
39739;BME280;25422;48.286;8.484;2023-07-31T06:14:59;94126.81;;;12.50;100.00
39739;BME280;25422;48.286;8.484;2023-07-31T06:17:25;94128.53;;;12.58;100.00
39739;BME280;25422;48.286;8.484;2023-07-31T06:19:51;94119.09;;;12.63;100.00
39739;BME280;25422;48.286;8.484;2023-07-31T06:22:17;94126.94;;;12.78;100.00
39739;BME280;25422;48.286;8.484;2023-07-31T06:24:42;94126.47;;;12.90;100.00
39739;BME280;25422;48.286;8.484;2023-07-31T06:27:08;94122.13;;;12.97;100.00
39739;BME280;25422;48.286;8.484;2023-07-31T06:29:33;94109.66;;;13.06;100.00
39739;BME280;25422;48.286;8.484;2023-07-31T06:31:59;94102.50;;;13.14;100.00
39739;BME280;25422;48.286;8.484;2023-07-31T06:34:24;94105.34;;;13.20;100.00
39739;BME280;25422;48.286;8.484;2023-07-31T06:36:50;94110.56;;;13.56;100.00
39739;BME280;25422;48.286;8.484;2023-07-31T06:39:15;94110.53;;;14.06;100.00
39739;BME280;25422;48.286;8.484;2023-07-31T06:41:42;94113.44;;;15.08;100.00
39739;BME280;25422;48.286;8.484;2023-07-31T06:44:10;94094.06;;;16.75;100.00
39739;BME280;25422;48.286;8.484;2023-07-31T06:46:36;94098.25;;;17.42;100.00
39739;BME280;25422;48.286;8.484;2023-07-31T06:49:01;94097.97;;;18.26;100.00
39739;BME280;25422;48.286;8.484;2023-07-31T06:51:26;94107.81;;;18.44;100.00
39739;BME280;25422;48.286;8.484;2023-07-31T06:53:52;94110.09;;;17.90;100.00
39739;BME280;25422;48.286;8.484;2023-07-31T06:56:17;94110.25;;;17.06;100.00
39739;BME280;25422;48.286;8.484;2023-07-31T06:58:43;94101.38;;;16.28;100.00
39739;BME280;25422;48.286;8.484;2023-07-31T07:01:08;94112.75;;;16.08;100.00
39739;BME280;25422;48.286;8.484;2023-07-31T07:03:33;94121.28;;;16.10;100.00
39739;BME280;25422;48.286;8.484;2023-07-31T07:05:59;94120.06;;;16.13;100.00
39739;BME280;25422;48.286;8.484;2023-07-31T07:08:25;94122.88;;;16.25;100.00
39739;BME280;25422;48.286;8.484;2023-07-31T07:10:50;94122.88;;;16.31;100.00
39739;BME280;25422;48.286;8.484;2023-07-31T07:13:16;94126.50;;;16.37;100.00
39739;BME280;25422;48.286;8.484;2023-07-31T07:15:43;94123.41;;;16.60;100.00
39739;BME280;25422;48.286;8.484;2023-07-31T07:18:12;94131.69;;;16.71;100.00
39739;BME280;25422;48.286;8.484;2023-07-31T07:20:38;94130.81;;;16.97;100.00
39739;BME280;25422;48.286;8.484;2023-07-31T07:23:03;94125.13;;;17.00;100.00
39739;BME280;25422;48.286;8.484;2023-07-31T07:25:28;94130.97;;;17.09;100.00
39739;BME280;25422;48.286;8.484;2023-07-31T07:27:54;94117.31;;;17.50;100.00
39739;BME280;25422;48.286;8.484;2023-07-31T07:30:19;94118.94;;;17.77;100.00
39739;BME280;25422;48.286;8.484;2023-07-31T07:32:45;94119.50;;;17.85;100.00
39739;BME280;25422;48.286;8.484;2023-07-31T07:35:11;94119.13;;;17.57;100.00
39739;BME280;25422;48.286;8.484;2023-07-31T07:37:36;94112.94;;;17.63;100.00
39739;BME280;25422;48.286;8.484;2023-07-31T07:40:02;94108.72;;;17.55;100.00
39739;BME280;25422;48.286;8.484;2023-07-31T07:42:28;94114.34;;;17.97;100.00
39739;BME280;25422;48.286;8.484;2023-07-31T07:44:54;94107.16;;;18.67;100.00
39739;BME280;25422;48.286;8.484;2023-07-31T07:47:19;94105.81;;;18.76;99.53
39739;BME280;25422;48.286;8.484;2023-07-31T07:49:44;94103.63;;;19.52;88.17
39739;BME280;25422;48.286;8.484;2023-07-31T07:52:10;94109.38;;;20.75;77.26
39739;BME280;25422;48.286;8.484;2023-07-31T07:54:35;94105.97;;;21.03;69.59
39739;BME280;25422;48.286;8.484;2023-07-31T07:57:01;94105.06;;;21.55;64.51
39739;BME280;25422;48.286;8.484;2023-07-31T07:59:26;94102.28;;;22.13;61.40
39739;BME280;25422;48.286;8.484;2023-07-31T08:01:51;94095.41;;;22.17;56.80
39739;BME280;25422;48.286;8.484;2023-07-31T08:04:17;94096.59;;;21.29;61.34
39739;BME280;25422;48.286;8.484;2023-07-31T08:06:42;94096.44;;;20.78;64.35
39739;BME280;25422;48.286;8.484;2023-07-31T08:09:08;94090.28;;;20.89;67.43
39739;BME280;25422;48.286;8.484;2023-07-31T08:11:34;94085.94;;;20.36;69.08
39739;BME280;25422;48.286;8.484;2023-07-31T08:13:59;94079.38;;;20.03;69.99
39739;BME280;25422;48.286;8.484;2023-07-31T08:16:25;94081.22;;;20.02;68.65
39739;BME280;25422;48.286;8.484;2023-07-31T08:18:51;94081.72;;;19.69;72.69
39739;BME280;25422;48.286;8.484;2023-07-31T08:21:16;94081.28;;;20.67;69.37
39739;BME280;25422;48.286;8.484;2023-07-31T08:23:41;94083.28;;;21.58;63.27
39739;BME280;25422;48.286;8.484;2023-07-31T08:26:07;94077.47;;;20.75;63.68
39739;BME280;25422;48.286;8.484;2023-07-31T08:28:32;94079.34;;;21.61;58.59
39739;BME280;25422;48.286;8.484;2023-07-31T08:30:58;94079.03;;;21.91;57.20
39739;BME280;25422;48.286;8.484;2023-07-31T08:33:23;94075.00;;;21.88;55.29
39739;BME280;25422;48.286;8.484;2023-07-31T08:35:49;94081.75;;;22.30;54.83
39739;BME280;25422;48.286;8.484;2023-07-31T08:38:14;94075.16;;;21.82;54.94
39739;BME280;25422;48.286;8.484;2023-07-31T08:40:40;94078.78;;;22.44;52.73
39739;BME280;25422;48.286;8.484;2023-07-31T08:43:07;94082.47;;;22.82;51.34
39739;BME280;25422;48.286;8.484;2023-07-31T08:45:32;94077.47;;;22.12;51.59
39739;BME280;25422;48.286;8.484;2023-07-31T08:50:24;94070.56;;;23.66;50.19
39739;BME280;25422;48.286;8.484;2023-07-31T08:52:51;94074.88;;;23.18;49.00
39739;BME280;25422;48.286;8.484;2023-07-31T08:55:17;94076.75;;;23.45;50.73
39739;BME280;25422;48.286;8.484;2023-07-31T08:57:42;94074.44;;;22.60;51.19
39739;BME280;25422;48.286;8.484;2023-07-31T09:00:10;94080.38;;;22.28;50.60
39739;BME280;25422;48.286;8.484;2023-07-31T09:05:23;94072.16;;;23.67;47.82
39739;BME280;25422;48.286;8.484;2023-07-31T09:07:50;94067.59;;;23.95;47.52
39739;BME280;25422;48.286;8.484;2023-07-31T09:10:16;94066.84;;;23.40;47.69
39739;BME280;25422;48.286;8.484;2023-07-31T09:12:42;94054.34;;;24.05;46.98
39739;BME280;25422;48.286;8.484;2023-07-31T09:15:08;94057.31;;;23.00;49.83
39739;BME280;25422;48.286;8.484;2023-07-31T09:17:35;94048.75;;;23.20;48.99
39739;BME280;25422;48.286;8.484;2023-07-31T09:20:17;94052.13;;;23.10;48.09
39739;BME280;25422;48.286;8.484;2023-07-31T09:22:44;94055.72;;;23.81;47.54
39739;BME280;25422;48.286;8.484;2023-07-31T09:27:54;94052.53;;;24.16;47.48
39739;BME280;25422;48.286;8.484;2023-07-31T09:30:21;94055.50;;;23.55;46.49
39739;BME280;25422;48.286;8.484;2023-07-31T09:32:48;94057.78;;;22.30;49.04
39739;BME280;25422;48.286;8.484;2023-07-31T09:35:18;94052.00;;;22.55;50.49
39739;BME280;25422;48.286;8.484;2023-07-31T09:37:51;94051.81;;;22.40;51.25
39739;BME280;25422;48.286;8.484;2023-07-31T09:43:02;94056.16;;;22.12;52.10
39739;BME280;25422;48.286;8.484;2023-07-31T09:45:29;94050.84;;;22.68;51.20
39739;BME280;25422;48.286;8.484;2023-07-31T09:47:55;94028.19;;;23.80;48.95
39739;BME280;25422;48.286;8.484;2023-07-31T09:50:23;94023.16;;;24.21;47.65
39739;BME280;25422;48.286;8.484;2023-07-31T09:52:50;94032.13;;;23.67;46.55
39739;BME280;25422;48.286;8.484;2023-07-31T09:55:16;94029.03;;;24.23;46.62
39739;BME280;25422;48.286;8.484;2023-07-31T09:57:44;94012.25;;;24.28;44.95
39739;BME280;25422;48.286;8.484;2023-07-31T10:00:11;94010.03;;;24.68;44.98
39739;BME280;25422;48.286;8.484;2023-07-31T10:02:41;94011.81;;;23.99;46.80
39739;BME280;25422;48.286;8.484;2023-07-31T10:05:07;93995.88;;;23.44;45.93
39739;BME280;25422;48.286;8.484;2023-07-31T10:07:39;93986.75;;;24.10;46.23
39739;BME280;25422;48.286;8.484;2023-07-31T10:10:07;93990.25;;;24.74;46.93
39739;BME280;25422;48.286;8.484;2023-07-31T10:12:35;93998.00;;;24.75;44.72
39739;BME280;25422;48.286;8.484;2023-07-31T10:15:02;93992.97;;;24.79;45.15
39739;BME280;25422;48.286;8.484;2023-07-31T10:17:29;94000.16;;;23.83;46.69
39739;BME280;25422;48.286;8.484;2023-07-31T10:19:56;93998.97;;;23.68;46.86
39739;BME280;25422;48.286;8.484;2023-07-31T10:22:23;93991.03;;;23.41;46.76
39739;BME280;25422;48.286;8.484;2023-07-31T10:24:50;93980.84;;;23.70;45.98
39739;BME280;25422;48.286;8.484;2023-07-31T10:27:17;93980.91;;;24.77;43.60
39739;BME280;25422;48.286;8.484;2023-07-31T10:29:43;93971.53;;;24.11;46.12
39739;BME280;25422;48.286;8.484;2023-07-31T10:32:11;93966.19;;;24.79;43.78
39739;BME280;25422;48.286;8.484;2023-07-31T10:34:39;93964.66;;;24.99;44.30
39739;BME280;25422;48.286;8.484;2023-07-31T10:37:24;93964.13;;;25.12;44.04
39739;BME280;25422;48.286;8.484;2023-07-31T10:40:02;93960.97;;;23.88;46.15
39739;BME280;25422;48.286;8.484;2023-07-31T10:42:45;93955.31;;;24.33;45.59
39739;BME280;25422;48.286;8.484;2023-07-31T10:45:10;93956.63;;;24.94;45.64
39739;BME280;25422;48.286;8.484;2023-07-31T10:47:42;93957.53;;;23.98;47.14
39739;BME280;25422;48.286;8.484;2023-07-31T10:50:13;93955.00;;;23.81;47.49
39739;BME280;25422;48.286;8.484;2023-07-31T10:52:38;93942.97;;;24.21;44.43
39739;BME280;25422;48.286;8.484;2023-07-31T10:57:50;93947.88;;;23.54;46.31
39739;BME280;25422;48.286;8.484;2023-07-31T11:08:28;93967.03;;;24.27;45.52
39739;BME280;25422;48.286;8.484;2023-07-31T11:13:41;93959.63;;;23.53;47.50
39739;BME280;25422;48.286;8.484;2023-07-31T11:16:07;93962.69;;;23.35;46.39
39739;BME280;25422;48.286;8.484;2023-07-31T11:18:33;93961.91;;;22.35;49.04
39739;BME280;25422;48.286;8.484;2023-07-31T11:20:58;93969.09;;;22.79;51.06
39739;BME280;25422;48.286;8.484;2023-07-31T11:23:24;93944.63;;;23.85;47.12
39739;BME280;25422;48.286;8.484;2023-07-31T11:25:50;93965.69;;;22.62;49.35
39739;BME280;25422;48.286;8.484;2023-07-31T11:28:17;93957.88;;;22.33;51.21
39739;BME280;25422;48.286;8.484;2023-07-31T11:30:43;93959.88;;;23.19;49.37
39739;BME280;25422;48.286;8.484;2023-07-31T11:33:12;93954.31;;;23.58;49.64
39739;BME280;25422;48.286;8.484;2023-07-31T11:35:46;93955.19;;;22.77;51.81
39739;BME280;25422;48.286;8.484;2023-07-31T11:38:12;93957.06;;;23.69;48.85
39739;BME280;25422;48.286;8.484;2023-07-31T11:40:45;93954.78;;;23.88;46.48
39739;BME280;25422;48.286;8.484;2023-07-31T11:43:11;93958.94;;;24.06;47.44
39739;BME280;25422;48.286;8.484;2023-07-31T11:45:41;93960.22;;;23.61;47.20
39739;BME280;25422;48.286;8.484;2023-07-31T11:48:07;93965.22;;;23.19;48.35
39739;BME280;25422;48.286;8.484;2023-07-31T11:50:33;93972.19;;;22.27;51.40
39739;BME280;25422;48.286;8.484;2023-07-31T11:53:03;93950.81;;;21.82;59.00
39739;BME280;25422;48.286;8.484;2023-07-31T11:55:30;93937.34;;;22.55;55.04
39739;BME280;25422;48.286;8.484;2023-07-31T11:57:57;93943.25;;;22.35;55.56
39739;BME280;25422;48.286;8.484;2023-07-31T12:00:23;93936.53;;;22.11;55.54
39739;BME280;25422;48.286;8.484;2023-07-31T12:02:50;93924.97;;;22.22;57.40
39739;BME280;25422;48.286;8.484;2023-07-31T12:05:16;93931.47;;;22.09;59.82
39739;BME280;25422;48.286;8.484;2023-07-31T12:07:50;93940.41;;;22.42;58.77
39739;BME280;25422;48.286;8.484;2023-07-31T12:10:32;93931.78;;;22.57;53.52
39739;BME280;25422;48.286;8.484;2023-07-31T12:13:08;93928.22;;;23.01;53.80
39739;BME280;25422;48.286;8.484;2023-07-31T12:18:10;93928.97;;;23.99;50.93
39739;BME280;25422;48.286;8.484;2023-07-31T12:20:40;93928.84;;;25.36;46.80
39739;BME280;25422;48.286;8.484;2023-07-31T12:23:07;93926.94;;;23.36;49.38
39739;BME280;25422;48.286;8.484;2023-07-31T12:25:33;93934.38;;;21.51;57.98
39739;BME280;25422;48.286;8.484;2023-07-31T12:28:05;93923.69;;;20.54;88.06
39739;BME280;25422;48.286;8.484;2023-07-31T12:30:35;93928.88;;;20.32;91.96
39739;BME280;25422;48.286;8.484;2023-07-31T12:33:04;93924.41;;;20.50;83.47
39739;BME280;25422;48.286;8.484;2023-07-31T12:35:38;93909.22;;;20.74;89.40
39739;BME280;25422;48.286;8.484;2023-07-31T12:38:05;93905.38;;;20.12;91.02
39739;BME280;25422;48.286;8.484;2023-07-31T12:40:31;93903.28;;;20.14;97.10
39739;BME280;25422;48.286;8.484;2023-07-31T12:42:56;93893.06;;;20.35;85.84
39739;BME280;25422;48.286;8.484;2023-07-31T12:45:22;93889.09;;;20.66;97.52
39739;BME280;25422;48.286;8.484;2023-07-31T12:47:48;93882.88;;;21.06;81.64
39739;BME280;25422;48.286;8.484;2023-07-31T12:50:14;93886.09;;;21.09;81.04
39739;BME280;25422;48.286;8.484;2023-07-31T12:52:39;93890.66;;;21.64;77.90
39739;BME280;25422;48.286;8.484;2023-07-31T12:55:05;93884.50;;;22.25;68.85
39739;BME280;25422;48.286;8.484;2023-07-31T12:57:30;93880.28;;;22.51;69.71
39739;BME280;25422;48.286;8.484;2023-07-31T12:59:56;93878.69;;;22.06;73.88
39739;BME280;25422;48.286;8.484;2023-07-31T13:02:21;93877.22;;;22.15;68.26
39739;BME280;25422;48.286;8.484;2023-07-31T13:04:48;93875.69;;;22.24;66.61
39739;BME280;25422;48.286;8.484;2023-07-31T13:07:14;93872.91;;;22.59;62.90
39739;BME280;25422;48.286;8.484;2023-07-31T13:09:39;93867.75;;;22.52;62.35
39739;BME280;25422;48.286;8.484;2023-07-31T13:12:05;93869.56;;;23.38;57.02
39739;BME280;25422;48.286;8.484;2023-07-31T13:14:30;93868.47;;;24.51;50.70
39739;BME280;25422;48.286;8.484;2023-07-31T13:16:56;93861.03;;;24.58;51.60
39739;BME280;25422;48.286;8.484;2023-07-31T13:19:21;93855.22;;;25.33;47.25
39739;BME280;25422;48.286;8.484;2023-07-31T13:21:46;93860.81;;;25.32;46.76
39739;BME280;25422;48.286;8.484;2023-07-31T13:24:12;93853.31;;;25.08;49.36
39739;BME280;25422;48.286;8.484;2023-07-31T13:26:38;93856.03;;;24.03;51.73
39739;BME280;25422;48.286;8.484;2023-07-31T13:29:04;93856.44;;;25.92;47.78